Terminal Aerodrome Forecast
Issued by NWS Mobile, AL

Home | Current Version | Previous Version | Text Only | Print | Product List | Glossary On
Versions: 1 2 3 4 5 6 7 8 9 10 11 12 13 14 15 16 17 18 19 20 21 22 23 24 25 26
000
FTUS44 KMOB 191100
TAFPNS
TAF
KPNS 191133Z 1912/2012 VRB03KT P6SM -SHRA FEW025 SCT040 BKN070
     FM191500 10007KT P6SM SCT040 SCT150
     FM192000 14010KT P6SM VCTS SCT040CB
     FM200100 09006KT P6SM FEW040=

USA.gov is the U.S. government's official web portal to all federal, state and local government web resources and services.